createdAt,value
2022-07-30T00:00:39.845Z,56.66
2022-07-30T00:03:07.870Z,56.72
2022-07-30T00:05:35.998Z,56.67
2022-07-30T00:08:04.196Z,56.69
2022-07-30T00:10:33.648Z,56.72
2022-07-30T00:13:01.788Z,56.52
2022-07-30T00:15:30.030Z,56.60
2022-07-30T00:17:58.195Z,56.55
2022-07-30T00:20:28.066Z,56.58
2022-07-30T00:22:56.454Z,56.59
2022-07-30T00:25:25.133Z,56.46
2022-07-30T00:27:54.527Z,56.30
2022-07-30T00:30:22.645Z,56.38
2022-07-30T00:32:50.753Z,56.30
2022-07-30T00:35:19.209Z,56.31
2022-07-30T00:37:47.482Z,56.32
2022-07-30T00:40:15.835Z,56.43
2022-07-30T00:42:45.905Z,56.47
2022-07-30T00:45:17.379Z,56.47
2022-07-30T00:47:46.273Z,56.54
2022-07-30T00:50:16.409Z,56.64
2022-07-30T00:52:45.485Z,56.75
2022-07-30T00:55:15.628Z,56.95
2022-07-30T00:57:44.319Z,57.00
2022-07-30T01:00:16.915Z,56.93
2022-07-30T01:02:45.314Z,57.05
2022-07-30T01:05:13.695Z,57.05
2022-07-30T01:07:41.797Z,57.13
2022-07-30T01:10:12.282Z,57.31
2022-07-30T01:12:41.309Z,57.42
2022-07-30T01:15:11.073Z,57.35
2022-07-30T01:17:40.938Z,57.19
2022-07-30T01:20:13.389Z,57.16
2022-07-30T01:22:48.874Z,57.06
2022-07-30T01:25:25.741Z,56.95
2022-07-30T01:27:59.451Z,57.01
2022-07-30T01:30:30.906Z,57.16
2022-07-30T01:33:01.071Z,57.13
2022-07-30T01:35:31.914Z,57.06
2022-07-30T01:38:01.793Z,57.05
2022-07-30T01:40:30.595Z,56.98
2022-07-30T01:43:02.429Z,56.88
2022-07-30T01:45:35.737Z,56.97
2022-07-30T01:48:13.275Z,56.91
2022-07-30T01:50:45.001Z,56.92
2022-07-30T01:53:17.872Z,56.95
2022-07-30T01:55:47.200Z,57.08
2022-07-30T01:58:19.368Z,57.14
2022-07-30T02:00:50.986Z,57.10
2022-07-30T02:03:19.159Z,57.03
2022-07-30T02:05:53.507Z,56.97
2022-07-30T02:08:27.882Z,56.88
2022-07-30T02:11:02.936Z,56.82
2022-07-30T02:13:33.976Z,56.90
2022-07-30T02:16:13.031Z,56.67
2022-07-30T02:18:58.775Z,56.68
2022-07-30T02:21:36.399Z,56.84
2022-07-30T02:24:08.993Z,56.79
2022-07-30T02:26:39.326Z,56.83
2022-07-30T02:29:11.673Z,56.77
2022-07-30T02:31:41.953Z,56.82
2022-07-30T02:34:12.163Z,56.87
2022-07-30T02:36:44.015Z,56.89
2022-07-30T02:39:14.669Z,56.90
2022-07-30T02:41:49.526Z,57.39
2022-07-30T02:44:21.411Z,57.46
2022-07-30T02:46:52.030Z,57.35
2022-07-30T02:49:23.627Z,57.38
2022-07-30T02:51:52.945Z,57.45
2022-07-30T02:54:22.158Z,57.29
2022-07-30T02:56:52.878Z,57.33
2022-07-30T02:59:23.365Z,57.33
2022-07-30T03:01:53.241Z,57.34
2022-07-30T03:04:23.051Z,57.44
2022-07-30T03:06:52.526Z,57.40
2022-07-30T03:09:21.452Z,57.51
2022-07-30T03:11:52.527Z,57.43
2022-07-30T03:14:22.241Z,57.46
2022-07-30T03:16:56.679Z,57.57
2022-07-30T03:19:26.579Z,57.51
2022-07-30T03:21:57.251Z,57.42
2022-07-30T03:24:26.601Z,57.42
2022-07-30T03:26:56.752Z,57.42
2022-07-30T03:29:28.098Z,57.36
2022-07-30T03:31:56.554Z,57.32
2022-07-30T03:34:26.624Z,57.42
2022-07-30T03:36:57.892Z,57.45
2022-07-30T03:39:27.980Z,57.40
2022-07-30T03:41:56.715Z,57.38
2022-07-30T03:44:27.933Z,57.45
2022-07-30T03:46:59.233Z,57.55
2022-07-30T03:49:27.980Z,57.53
2022-07-30T03:51:56.923Z,57.56
2022-07-30T03:54:26.692Z,57.61
2022-07-30T03:57:15.302Z,57.61
2022-07-30T03:59:51.798Z,57.65
2022-07-30T04:02:21.565Z,57.67
2022-07-30T04:05:19.041Z,57.68
2022-07-30T04:07:48.408Z,57.88
2022-07-30T04:10:18.521Z,57.87
2022-07-30T04:13:09.814Z,57.86
2022-07-30T04:16:37.242Z,57.67
2022-07-30T04:18:41.129Z,57.81
2022-07-30T04:21:17.288Z,57.93
2022-07-30T04:24:04.005Z,58.24
2022-07-30T04:26:36.743Z,58.15
2022-07-30T04:29:07.332Z,58.22
2022-07-30T04:31:40.996Z,58.38
2022-07-30T04:34:46.488Z,58.54
2022-07-30T04:37:17.252Z,58.68
2022-07-30T04:39:45.747Z,58.64
2022-07-30T04:42:14.379Z,58.59
2022-07-30T04:44:45.559Z,58.67
2022-07-30T04:47:37.574Z,58.85
2022-07-30T04:50:27.400Z,58.83
2022-07-30T04:52:56.982Z,58.92
2022-07-30T04:55:29.668Z,58.90
2022-07-30T04:57:59.083Z,58.77
2022-07-30T05:00:32.552Z,58.77
2022-07-30T05:03:04.648Z,58.69
2022-07-30T05:05:34.227Z,58.51
2022-07-30T05:08:03.754Z,58.56
2022-07-30T05:10:32.856Z,58.58
2022-07-30T05:13:01.669Z,58.74
2022-07-30T05:15:37.162Z,58.65
2022-07-30T05:18:09.686Z,58.92
2022-07-30T05:20:41.526Z,58.97
2022-07-30T05:23:22.091Z,58.85
2022-07-30T05:26:00.546Z,59.03
2022-07-30T05:28:37.463Z,58.93
2022-07-30T05:31:09.397Z,58.90
2022-07-30T05:33:42.672Z,58.95
2022-07-30T05:36:17.229Z,59.03
2022-07-30T05:38:45.810Z,59.22
2022-07-30T05:41:33.263Z,59.16
2022-07-30T05:44:04.525Z,59.26
2022-07-30T05:46:33.106Z,59.62
2022-07-30T05:49:03.794Z,59.56
2022-07-30T05:51:32.270Z,59.83
2022-07-30T05:54:00.570Z,59.98
2022-07-30T05:56:48.458Z,60.07
2022-07-30T05:59:21.814Z,60.04
2022-07-30T06:02:06.960Z,60.15
2022-07-30T06:05:06.327Z,60.06
2022-07-30T06:07:36.020Z,59.86
2022-07-30T06:10:06.760Z,59.85
2022-07-30T06:12:35.189Z,59.55
2022-07-30T06:15:03.861Z,59.53
2022-07-30T06:17:42.061Z,59.43
2022-07-30T06:20:24.756Z,59.20
2022-07-30T06:23:01.991Z,58.92
2022-07-30T06:25:48.246Z,58.54
2022-07-30T06:31:09.050Z,58.02
2022-07-30T06:33:37.915Z,57.36
2022-07-30T06:36:08.049Z,56.92
2022-07-30T06:38:52.110Z,57.10
2022-07-30T06:41:28.335Z,56.47
2022-07-30T06:43:59.826Z,56.12
2022-07-30T06:46:50.887Z,56.72
2022-07-30T06:49:21.659Z,56.47
2022-07-30T06:51:51.537Z,56.13
2022-07-30T06:54:20.156Z,56.04
2022-07-30T06:57:18.077Z,55.58
2022-07-30T06:59:56.356Z,55.16
2022-07-30T07:02:42.929Z,55.03
2022-07-30T07:05:15.443Z,54.89
2022-07-30T07:07:58.655Z,54.28
2022-07-30T07:10:32.023Z,53.46
2022-07-30T07:13:26.447Z,53.01
2022-07-30T07:15:55.478Z,53.36
2022-07-30T07:18:26.622Z,52.96
2022-07-30T07:21:00.535Z,52.85
2022-07-30T07:23:39.879Z,52.11
2022-07-30T07:26:19.233Z,51.37
2022-07-30T07:28:47.791Z,50.98
2022-07-30T07:32:06.919Z,49.67
2022-07-30T07:34:05.550Z,48.67
2022-07-30T07:36:35.388Z,47.60
2022-07-30T07:39:09.842Z,46.54
2022-07-30T07:41:49.346Z,45.85
2022-07-30T07:44:23.313Z,45.27
2022-07-30T07:46:51.924Z,45.61
2022-07-30T07:49:20.536Z,45.06
2022-07-30T07:51:52.239Z,44.25
2022-07-30T07:54:24.197Z,43.80
2022-07-30T07:56:57.393Z,43.52
2022-07-30T07:59:44.507Z,42.70
2022-07-30T08:02:21.835Z,41.62
2022-07-30T08:04:56.615Z,42.26
2022-07-30T08:07:51.714Z,40.67
2022-07-30T08:10:40.194Z,40.62
2022-07-30T08:13:51.567Z,40.76
2022-07-30T08:16:54.104Z,39.91
2022-07-30T08:19:47.555Z,40.02
2022-07-30T08:22:24.097Z,39.79
2022-07-30T08:24:52.497Z,39.66
2022-07-30T08:27:22.326Z,39.33
2022-07-30T08:29:50.748Z,38.49
2022-07-30T08:32:19.640Z,38.75
2022-07-30T08:34:48.245Z,39.76
2022-07-30T08:37:16.811Z,39.70
2022-07-30T08:39:45.154Z,38.45
2022-07-30T08:42:16.890Z,38.35
2022-07-30T08:44:47.853Z,38.92
2022-07-30T08:47:19.512Z,37.64
2022-07-30T08:50:13.010Z,37.20
2022-07-30T08:53:15.801Z,37.38
2022-07-30T08:55:45.946Z,37.25
2022-07-30T08:58:25.475Z,37.17
2022-07-30T09:03:25.166Z,37.41
2022-07-30T09:05:54.364Z,37.72
2022-07-30T09:08:23.217Z,37.42
2022-07-30T09:10:55.668Z,36.27
2022-07-30T09:13:29.077Z,36.21
2022-07-30T09:16:00.823Z,35.80
2022-07-30T09:18:33.080Z,36.42
2022-07-30T09:21:02.481Z,36.04
2022-07-30T09:23:30.967Z,34.92
2022-07-30T09:26:55.328Z,34.23
2022-07-30T09:29:42.772Z,34.95
2022-07-30T09:32:49.840Z,34.13
2022-07-30T09:35:27.917Z,34.44
2022-07-30T09:38:12.218Z,34.71
2022-07-30T09:41:41.508Z,33.25
2022-07-30T09:44:12.114Z,32.51
2022-07-30T09:46:47.881Z,32.61
2022-07-30T09:49:25.678Z,32.77
2022-07-30T09:51:56.983Z,33.50
2022-07-30T09:54:51.266Z,33.12
2022-07-30T09:57:27.869Z,31.55
2022-07-30T10:00:19.683Z,31.86
2022-07-30T10:03:33.152Z,31.20
2022-07-30T10:06:34.159Z,30.06
2022-07-30T10:09:13.656Z,29.85
2022-07-30T10:11:50.211Z,30.36
2022-07-30T10:14:23.936Z,30.67
2022-07-30T10:17:00.252Z,30.20
2022-07-30T10:19:39.476Z,28.70
2022-07-30T10:22:45.059Z,29.51
2022-07-30T10:25:35.364Z,29.71
2022-07-30T10:28:39.390Z,28.39
2022-07-30T10:31:49.548Z,28.25
2022-07-30T10:34:00.133Z,28.65
2022-07-30T10:36:29.585Z,29.16
2022-07-30T10:38:59.524Z,29.88
2022-07-30T10:41:47.811Z,29.62
2022-07-30T10:44:48.938Z,30.51
2022-07-30T10:47:19.839Z,31.12
2022-07-30T10:50:10.550Z,30.16
2022-07-30T10:52:50.798Z,29.35
2022-07-30T10:55:37.203Z,29.64
2022-07-30T10:58:09.305Z,30.63
2022-07-30T11:01:01.665Z,31.80
2022-07-30T11:03:41.319Z,31.16
2022-07-30T11:06:28.102Z,30.27
2022-07-30T11:08:57.408Z,30.05
2022-07-30T11:12:00.962Z,29.03
2022-07-30T11:15:06.838Z,29.18
2022-07-30T11:18:11.268Z,27.93
2022-07-30T11:20:41.164Z,28.74
2022-07-30T11:23:35.518Z,29.84
2022-07-30T11:26:04.702Z,29.90
2022-07-30T11:28:42.925Z,28.85
2022-07-30T11:31:56.590Z,28.77
2022-07-30T11:34:31.216Z,29.41
2022-07-30T11:37:22.178Z,29.10
2022-07-30T11:40:11.798Z,28.29
2022-07-30T11:42:42.802Z,29.05
2022-07-30T11:45:29.777Z,29.77
2022-07-30T11:48:10.867Z,27.07
2022-07-30T11:50:39.363Z,27.78
2022-07-30T11:53:09.259Z,27.10
2022-07-30T11:55:41.133Z,28.29
2022-07-30T11:58:12.487Z,28.48
2022-07-30T12:00:55.378Z,28.23
2022-07-30T12:03:25.131Z,28.80
2022-07-30T12:05:59.323Z,29.61
2022-07-30T12:08:33.315Z,30.39
2022-07-30T12:11:04.555Z,29.97
2022-07-30T12:13:45.132Z,30.44
2022-07-30T12:16:17.956Z,30.95
2022-07-30T12:18:50.238Z,30.70
2022-07-30T12:21:25.619Z,28.68
2022-07-30T12:24:02.459Z,28.52
2022-07-30T12:26:31.982Z,29.03
2022-07-30T12:29:03.279Z,29.94
2022-07-30T12:31:49.463Z,30.55
2022-07-30T12:34:22.079Z,28.95
2022-07-30T12:36:50.289Z,27.68
2022-07-30T12:39:27.036Z,27.68
2022-07-30T12:41:57.110Z,26.88
2022-07-30T12:44:39.982Z,27.45
2022-07-30T12:47:22.167Z,26.62
2022-07-30T12:49:53.347Z,27.92
2022-07-30T12:52:28.478Z,27.59
2022-07-30T12:55:03.561Z,28.50
2022-07-30T12:58:07.418Z,29.08
2022-07-30T13:00:52.868Z,29.26
2022-07-30T13:03:37.545Z,29.03
2022-07-30T13:06:24.553Z,29.29
2022-07-30T13:09:09.966Z,29.45
2022-07-30T13:12:10.472Z,29.84
2022-07-30T13:14:47.610Z,29.41
2022-07-30T13:17:15.683Z,28.13
2022-07-30T13:19:45.213Z,28.13
2022-07-30T13:22:13.526Z,27.98
2022-07-30T13:24:41.639Z,27.26
2022-07-30T13:27:09.927Z,28.15
2022-07-30T13:29:38.103Z,29.08
2022-07-30T13:32:06.831Z,28.98
2022-07-30T13:34:34.911Z,27.88
2022-07-30T13:37:04.855Z,28.24
2022-07-30T13:39:33.262Z,28.57
2022-07-30T13:42:01.370Z,29.32
2022-07-30T13:44:29.457Z,29.34
2022-07-30T13:47:01.575Z,29.32
2022-07-30T13:49:30.307Z,28.62
2022-07-30T13:51:58.600Z,29.96
2022-07-30T13:54:29.383Z,29.98
2022-07-30T13:56:57.614Z,29.41
2022-07-30T13:59:25.929Z,29.60
2022-07-30T14:01:54.081Z,30.16
2022-07-30T14:04:22.154Z,30.61
2022-07-30T14:06:50.273Z,30.53
2022-07-30T14:09:18.436Z,30.96
2022-07-30T14:11:48.101Z,30.88
2022-07-30T14:14:16.262Z,30.89
2022-07-30T14:16:46.639Z,31.09
2022-07-30T14:19:23.990Z,31.24
2022-07-30T14:21:54.115Z,30.94
2022-07-30T14:24:23.163Z,30.96
2022-07-30T14:26:57.785Z,30.54
2022-07-30T14:29:27.116Z,30.59
2022-07-30T14:31:55.448Z,30.78
2022-07-30T14:34:23.794Z,31.62
2022-07-30T14:36:55.462Z,31.58
2022-07-30T14:39:26.064Z,31.98
2022-07-30T14:41:56.177Z,31.34
2022-07-30T14:44:24.698Z,32.48
2022-07-30T14:47:02.012Z,32.43
2022-07-30T14:49:30.676Z,32.17
2022-07-30T14:51:58.901Z,31.64
2022-07-30T14:54:27.943Z,32.44
2022-07-30T14:56:58.593Z,32.02
2022-07-30T14:59:27.869Z,32.25
2022-07-30T15:01:56.547Z,32.79
2022-07-30T15:04:24.695Z,32.13
2022-07-30T15:06:52.873Z,31.94
2022-07-30T15:09:21.039Z,31.95
2022-07-30T15:12:08.543Z,32.16
2022-07-30T15:14:40.000Z,32.20
2022-07-30T15:17:08.403Z,32.60
2022-07-30T15:19:49.893Z,32.49
2022-07-30T15:22:29.767Z,32.56
2022-07-30T15:24:57.985Z,33.57
2022-07-30T15:27:33.997Z,33.23
2022-07-30T15:30:07.581Z,33.18
2022-07-30T15:32:37.197Z,32.99
2022-07-30T15:35:13.890Z,33.32
2022-07-30T15:37:44.853Z,34.51
2022-07-30T15:40:16.496Z,34.91
2022-07-30T15:45:31.531Z,34.28
2022-07-30T15:48:26.654Z,33.91
2022-07-30T15:51:03.781Z,34.13
2022-07-30T15:53:35.606Z,33.98
2022-07-30T15:56:33.215Z,34.61
2022-07-30T15:59:08.850Z,34.73
2022-07-30T16:01:44.560Z,34.24
2022-07-30T16:04:19.268Z,33.77
2022-07-30T16:07:00.357Z,34.99
2022-07-30T16:09:33.074Z,34.99
2022-07-30T16:12:03.358Z,35.47
2022-07-30T16:14:34.255Z,36.51
2022-07-30T16:17:05.446Z,35.60
2022-07-30T16:19:35.504Z,35.49
2022-07-30T16:22:08.038Z,34.76
2022-07-30T16:24:36.843Z,34.83
2022-07-30T16:27:14.261Z,35.29
2022-07-30T16:29:48.934Z,35.41
2022-07-30T16:32:21.926Z,36.06
2022-07-30T16:34:51.498Z,36.42
2022-07-30T16:37:23.767Z,36.41
2022-07-30T16:39:52.528Z,36.95
2022-07-30T16:42:22.191Z,36.60
2022-07-30T16:44:50.401Z,37.17
2022-07-30T16:47:26.386Z,36.92
2022-07-30T16:49:57.863Z,36.34
2022-07-30T16:52:29.877Z,36.72
2022-07-30T16:55:03.118Z,36.30
2022-07-30T16:57:32.066Z,36.80
2022-07-30T17:00:00.276Z,36.67
2022-07-30T17:02:31.594Z,36.43
2022-07-30T17:04:59.991Z,36.72
2022-07-30T17:07:28.893Z,36.95
2022-07-30T17:09:58.642Z,37.16
2022-07-30T17:12:31.547Z,37.69
2022-07-30T17:15:00.227Z,36.98
2022-07-30T17:17:30.149Z,37.30
2022-07-30T17:20:00.333Z,37.50
2022-07-30T17:22:29.013Z,37.95
2022-07-30T17:24:58.820Z,37.79
2022-07-30T17:27:31.618Z,38.10
2022-07-30T17:29:59.981Z,38.38
2022-07-30T17:32:30.416Z,38.77
2022-07-30T17:34:59.411Z,39.08
2022-07-30T17:37:27.434Z,39.50
2022-07-30T17:40:18.869Z,39.89
2022-07-30T17:42:46.490Z,39.70
2022-07-30T17:45:15.204Z,39.76
2022-07-30T17:47:49.585Z,40.37
2022-07-30T17:53:04.039Z,40.68
2022-07-30T17:55:35.079Z,40.88
2022-07-30T17:58:03.961Z,41.00
2022-07-30T18:00:34.764Z,41.20
2022-07-30T18:03:05.182Z,41.44
2022-07-30T18:05:33.564Z,41.28
2022-07-30T18:08:01.827Z,41.36
2022-07-30T18:10:30.232Z,41.40
2022-07-30T18:12:58.585Z,41.52
2022-07-30T18:15:47.269Z,41.84
2022-07-30T18:18:17.420Z,41.82
2022-07-30T18:20:56.822Z,41.78
2022-07-30T18:23:25.771Z,41.90
2022-07-30T18:26:03.245Z,41.94
2022-07-30T18:28:31.798Z,41.87
2022-07-30T18:31:00.242Z,41.55
2022-07-30T18:33:30.221Z,41.98
2022-07-30T18:35:59.193Z,41.84
2022-07-30T18:38:27.864Z,41.92
2022-07-30T18:40:59.289Z,41.77
2022-07-30T18:43:28.697Z,41.83
2022-07-30T18:45:57.686Z,42.02
2022-07-30T18:48:26.723Z,41.86
2022-07-30T18:50:56.418Z,42.20
2022-07-30T18:53:24.911Z,42.13
2022-07-30T18:55:53.319Z,42.00
2022-07-30T18:58:21.966Z,42.27
2022-07-30T19:00:50.852Z,42.30
2022-07-30T19:03:22.989Z,42.25
2022-07-30T19:05:51.647Z,42.36
2022-07-30T19:08:21.459Z,42.43
2022-07-30T19:10:49.950Z,42.49
2022-07-30T19:13:18.558Z,42.52
2022-07-30T19:15:47.327Z,42.90
2022-07-30T19:18:15.652Z,42.73
2022-07-30T19:20:44.757Z,43.06
2022-07-30T19:23:13.746Z,43.51
2022-07-30T19:25:43.710Z,44.13
2022-07-30T19:28:13.943Z,43.83
2022-07-30T19:30:42.732Z,44.24
2022-07-30T19:33:15.588Z,44.60
2022-07-30T19:35:44.765Z,44.64
2022-07-30T19:38:21.367Z,44.71
2022-07-30T19:40:52.170Z,44.99
2022-07-30T19:43:23.995Z,44.73
2022-07-30T19:45:54.079Z,44.84
2022-07-30T19:48:28.584Z,45.16
2022-07-30T19:50:58.304Z,45.40
2022-07-30T19:53:27.917Z,45.31
2022-07-30T19:56:08.424Z,45.60
2022-07-30T19:58:40.113Z,45.71
2022-07-30T20:01:09.901Z,45.86
2022-07-30T20:03:38.934Z,45.92
2022-07-30T20:06:08.222Z,46.30
2022-07-30T20:08:39.416Z,46.51
2022-07-30T20:11:09.689Z,46.64
2022-07-30T20:13:45.229Z,46.96
2022-07-30T20:16:16.202Z,47.41
2022-07-30T20:18:46.153Z,47.15
2022-07-30T20:21:16.195Z,47.22
2022-07-30T20:23:45.453Z,47.24
2022-07-30T20:26:16.161Z,47.15
2022-07-30T20:28:52.569Z,47.18
2022-07-30T20:31:21.390Z,47.17
2022-07-30T20:33:50.828Z,47.12
2022-07-30T20:36:19.608Z,47.43
2022-07-30T20:38:49.336Z,47.61
2022-07-30T20:41:19.859Z,47.71
2022-07-30T20:43:52.425Z,47.70
2022-07-30T20:46:23.778Z,47.79
2022-07-30T20:48:53.265Z,48.04
2022-07-30T20:51:22.051Z,48.10
2022-07-30T20:54:03.097Z,48.46
2022-07-30T20:56:32.853Z,48.46
2022-07-30T20:59:01.279Z,48.76
2022-07-30T21:01:30.986Z,49.12
2022-07-30T21:03:59.417Z,49.49
2022-07-30T21:06:28.207Z,49.81
2022-07-30T21:08:56.923Z,50.02
2022-07-30T21:11:26.611Z,50.10
2022-07-30T21:13:56.448Z,50.12
2022-07-30T21:16:27.307Z,50.01
2022-07-30T21:18:59.728Z,50.14
2022-07-30T21:21:41.661Z,50.19
2022-07-30T21:24:19.425Z,50.07
2022-07-30T21:26:50.396Z,50.15
2022-07-30T21:29:20.358Z,50.05
2022-07-30T21:32:01.100Z,50.07
2022-07-30T21:34:40.430Z,50.21
2022-07-30T21:37:13.103Z,50.30
2022-07-30T21:39:44.411Z,50.00
2022-07-30T21:42:13.371Z,50.21
2022-07-30T21:44:43.578Z,49.95
2022-07-30T21:47:14.362Z,49.78
2022-07-30T21:49:45.050Z,49.61
2022-07-30T21:52:13.503Z,49.70
2022-07-30T21:54:50.437Z,49.53
2022-07-30T21:57:26.203Z,49.60
2022-07-30T21:59:56.971Z,49.43
2022-07-30T22:02:26.661Z,49.69
2022-07-30T22:04:56.583Z,49.59
2022-07-30T22:07:27.683Z,49.44
2022-07-30T22:09:56.094Z,49.22
2022-07-30T22:12:28.931Z,49.52
2022-07-30T22:14:59.921Z,49.34
2022-07-30T22:17:36.878Z,49.35
2022-07-30T22:20:08.713Z,49.35
2022-07-30T22:22:40.062Z,48.84
2022-07-30T22:25:10.223Z,48.81
2022-07-30T22:27:40.155Z,48.67
2022-07-30T22:30:27.004Z,48.56
2022-07-30T22:32:55.701Z,48.61
2022-07-30T22:35:34.098Z,48.62
2022-07-30T22:38:03.465Z,48.65
2022-07-30T22:40:32.156Z,48.84
2022-07-30T22:43:04.168Z,48.93
2022-07-30T22:45:48.827Z,48.79
2022-07-30T22:48:19.172Z,48.97
2022-07-30T22:50:48.391Z,48.50
2022-07-30T22:54:03.657Z,48.05
2022-07-30T22:56:15.725Z,48.10
2022-07-30T22:58:45.249Z,48.08
2022-07-30T23:01:19.299Z,48.28
2022-07-30T23:03:51.674Z,48.13
2022-07-30T23:06:20.583Z,47.83
2022-07-30T23:08:49.242Z,47.73
2022-07-30T23:11:17.819Z,47.79
2022-07-30T23:13:46.277Z,47.78
2022-07-30T23:16:15.554Z,47.81
2022-07-30T23:18:45.404Z,47.55
2022-07-30T23:21:14.523Z,47.67
2022-07-30T23:23:43.351Z,47.61
2022-07-30T23:26:11.844Z,47.72
2022-07-30T23:28:40.673Z,47.85
2022-07-30T23:31:09.311Z,47.96
2022-07-30T23:33:37.746Z,48.25
2022-07-30T23:36:08.939Z,47.93
2022-07-30T23:38:38.122Z,48.11
2022-07-30T23:41:06.889Z,48.08
2022-07-30T23:43:35.914Z,48.16
2022-07-30T23:46:09.489Z,48.33
2022-07-30T23:48:39.627Z,48.36
2022-07-30T23:51:09.373Z,48.49
2022-07-30T23:53:37.994Z,48.62
2022-07-30T23:56:08.078Z,48.76
2022-07-30T23:58:36.409Z,48.50
